Terminal Aerodrome Forecast
Issued by NWS Grand Junction, CO

Current Version | Previous Version | Text Only | Print | Product List | Glossary On
Versions: 1 2 3 4 5 6 7 8 9 10 11 12 13 14 15 16 17
000
FTUS45 KGJT 260532
TAFGJT
TAF
KGJT 260532Z 2606/2706 34003KT P6SM VCSH SCT060 BKN120
      TEMPO 2606/2609 -SHRA BKN040
     FM261000 34004KT P6SM VCSH BKN045
     FM261800 34006KT P6SM SCT100
     FM262200 31007KT P6SM SCT250
     FM270300 19005KT P6SM SCT200=

USA.gov is the U.S. government's official web portal to all federal, state and local government web resources and services.